sensor_id;sensor_type;location;lat;lon;timestamp;temperature;humidity
13682;DHT22;6913;49.892;7.936;2023-11-22T00:01:12;6.80;99.90
13682;DHT22;6913;49.892;7.936;2023-11-22T00:03:39;6.30;99.90
13682;DHT22;6913;49.892;7.936;2023-11-22T00:06:06;6.30;99.90
13682;DHT22;6913;49.892;7.936;2023-11-22T00:08:33;6.30;99.90
13682;DHT22;6913;49.892;7.936;2023-11-22T00:11:00;6.20;99.90
13682;DHT22;6913;49.892;7.936;2023-11-22T00:13:28;6.10;99.90
13682;DHT22;6913;49.892;7.936;2023-11-22T00:15:56;6.10;99.90
13682;DHT22;6913;49.892;7.936;2023-11-22T00:18:23;6.10;99.90
13682;DHT22;6913;49.892;7.936;2023-11-22T00:20:51;6.10;99.90
13682;DHT22;6913;49.892;7.936;2023-11-22T00:23:18;6.10;99.90
13682;DHT22;6913;49.892;7.936;2023-11-22T00:25:45;6.10;99.90
13682;DHT22;6913;49.892;7.936;2023-11-22T00:28:12;6.10;99.90
13682;DHT22;6913;49.892;7.936;2023-11-22T00:30:39;6.20;99.90
13682;DHT22;6913;49.892;7.936;2023-11-22T00:33:07;6.20;99.90
13682;DHT22;6913;49.892;7.936;2023-11-22T00:35:35;6.30;99.90
13682;DHT22;6913;49.892;7.936;2023-11-22T00:38:01;6.20;99.90
13682;DHT22;6913;49.892;7.936;2023-11-22T00:40:28;6.40;99.90
13682;DHT22;6913;49.892;7.936;2023-11-22T00:42:56;6.20;99.90
13682;DHT22;6913;49.892;7.936;2023-11-22T00:45:23;6.20;99.90
13682;DHT22;6913;49.892;7.936;2023-11-22T00:47:50;6.30;99.90
13682;DHT22;6913;49.892;7.936;2023-11-22T00:50:19;6.20;99.90
13682;DHT22;6913;49.892;7.936;2023-11-22T00:52:46;6.20;99.90
13682;DHT22;6913;49.892;7.936;2023-11-22T00:55:13;6.10;99.90
13682;DHT22;6913;49.892;7.936;2023-11-22T00:57:40;6.10;99.90
13682;DHT22;6913;49.892;7.936;2023-11-22T01:00:08;6.60;99.90
13682;DHT22;6913;49.892;7.936;2023-11-22T01:02:36;6.00;99.90
13682;DHT22;6913;49.892;7.936;2023-11-22T01:05:05;6.20;99.90
13682;DHT22;6913;49.892;7.936;2023-11-22T01:07:37;5.70;99.90
13682;DHT22;6913;49.892;7.936;2023-11-22T01:10:04;5.70;99.90
13682;DHT22;6913;49.892;7.936;2023-11-22T01:12:31;5.60;99.90
13682;DHT22;6913;49.892;7.936;2023-11-22T01:14:58;5.70;99.90
13682;DHT22;6913;49.892;7.936;2023-11-22T01:17:25;5.90;99.90
13682;DHT22;6913;49.892;7.936;2023-11-22T01:19:52;5.50;99.90
13682;DHT22;6913;49.892;7.936;2023-11-22T01:22:19;5.40;99.90
13682;DHT22;6913;49.892;7.936;2023-11-22T01:24:47;5.40;99.90
13682;DHT22;6913;49.892;7.936;2023-11-22T01:27:14;5.10;99.90
13682;DHT22;6913;49.892;7.936;2023-11-22T01:29:41;5.10;99.90
13682;DHT22;6913;49.892;7.936;2023-11-22T01:32:08;5.00;99.90
13682;DHT22;6913;49.892;7.936;2023-11-22T01:34:36;4.90;99.90
13682;DHT22;6913;49.892;7.936;2023-11-22T01:37:03;5.00;99.90
13682;DHT22;6913;49.892;7.936;2023-11-22T01:39:31;4.80;99.90
13682;DHT22;6913;49.892;7.936;2023-11-22T01:41:59;4.70;99.90
13682;DHT22;6913;49.892;7.936;2023-11-22T01:44:26;4.90;99.90
13682;DHT22;6913;49.892;7.936;2023-11-22T01:46:53;4.90;99.90
13682;DHT22;6913;49.892;7.936;2023-11-22T01:49:21;4.60;99.90
13682;DHT22;6913;49.892;7.936;2023-11-22T01:51:49;4.90;99.90
13682;DHT22;6913;49.892;7.936;2023-11-22T01:54:18;4.50;99.90
13682;DHT22;6913;49.892;7.936;2023-11-22T01:56:47;4.80;99.90
13682;DHT22;6913;49.892;7.936;2023-11-22T01:59:16;4.60;99.90
13682;DHT22;6913;49.892;7.936;2023-11-22T02:01:44;4.30;99.90
13682;DHT22;6913;49.892;7.936;2023-11-22T02:04:12;3.90;99.90
13682;DHT22;6913;49.892;7.936;2023-11-22T02:06:39;4.10;99.90
13682;DHT22;6913;49.892;7.936;2023-11-22T02:09:06;4.10;99.90
13682;DHT22;6913;49.892;7.936;2023-11-22T02:11:39;4.40;99.90
13682;DHT22;6913;49.892;7.936;2023-11-22T02:14:07;4.30;99.90
13682;DHT22;6913;49.892;7.936;2023-11-22T02:16:37;4.60;99.90
13682;DHT22;6913;49.892;7.936;2023-11-22T02:19:06;4.60;99.90
13682;DHT22;6913;49.892;7.936;2023-11-22T02:21:33;4.40;99.90
13682;DHT22;6913;49.892;7.936;2023-11-22T02:24:01;4.70;99.90
13682;DHT22;6913;49.892;7.936;2023-11-22T02:26:28;4.30;99.90
13682;DHT22;6913;49.892;7.936;2023-11-22T02:28:56;4.30;99.90
13682;DHT22;6913;49.892;7.936;2023-11-22T02:31:24;4.20;99.90
13682;DHT22;6913;49.892;7.936;2023-11-22T02:33:53;4.20;99.90
13682;DHT22;6913;49.892;7.936;2023-11-22T02:36:21;4.70;99.90
13682;DHT22;6913;49.892;7.936;2023-11-22T02:38:50;4.30;99.90
13682;DHT22;6913;49.892;7.936;2023-11-22T02:41:18;4.40;99.90
13682;DHT22;6913;49.892;7.936;2023-11-22T02:43:45;4.50;99.90
13682;DHT22;6913;49.892;7.936;2023-11-22T02:46:12;4.70;99.90
13682;DHT22;6913;49.892;7.936;2023-11-22T02:48:39;4.40;99.90
13682;DHT22;6913;49.892;7.936;2023-11-22T02:51:06;4.80;99.90
13682;DHT22;6913;49.892;7.936;2023-11-22T02:53:33;4.60;99.90
13682;DHT22;6913;49.892;7.936;2023-11-22T02:56:00;4.30;99.90
13682;DHT22;6913;49.892;7.936;2023-11-22T02:58:29;4.20;99.90
13682;DHT22;6913;49.892;7.936;2023-11-22T03:00:56;4.20;99.90
13682;DHT22;6913;49.892;7.936;2023-11-22T03:03:23;4.30;99.90
13682;DHT22;6913;49.892;7.936;2023-11-22T03:05:50;4.30;99.90
13682;DHT22;6913;49.892;7.936;2023-11-22T03:08:17;4.40;99.90
13682;DHT22;6913;49.892;7.936;2023-11-22T03:10:44;4.40;99.90
13682;DHT22;6913;49.892;7.936;2023-11-22T03:13:11;4.40;99.90
13682;DHT22;6913;49.892;7.936;2023-11-22T03:15:40;4.90;99.90
13682;DHT22;6913;49.892;7.936;2023-11-22T03:18:08;4.50;99.90
13682;DHT22;6913;49.892;7.936;2023-11-22T03:20:34;4.50;99.90
13682;DHT22;6913;49.892;7.936;2023-11-22T03:23:03;4.50;99.90
13682;DHT22;6913;49.892;7.936;2023-11-22T03:25:30;4.60;99.90
13682;DHT22;6913;49.892;7.936;2023-11-22T03:27:57;4.60;99.90
13682;DHT22;6913;49.892;7.936;2023-11-22T03:30:24;4.60;99.90
13682;DHT22;6913;49.892;7.936;2023-11-22T03:32:52;3.80;99.90
13682;DHT22;6913;49.892;7.936;2023-11-22T03:35:19;4.50;99.90
13682;DHT22;6913;49.892;7.936;2023-11-22T03:37:47;4.50;99.90
13682;DHT22;6913;49.892;7.936;2023-11-22T03:40:14;4.80;99.90
13682;DHT22;6913;49.892;7.936;2023-11-22T03:42:41;4.50;99.90
13682;DHT22;6913;49.892;7.936;2023-11-22T03:45:08;4.40;99.90
13682;DHT22;6913;49.892;7.936;2023-11-22T03:47:35;4.40;99.90
13682;DHT22;6913;49.892;7.936;2023-11-22T03:50:06;4.30;99.90
13682;DHT22;6913;49.892;7.936;2023-11-22T03:52:33;4.20;99.90
13682;DHT22;6913;49.892;7.936;2023-11-22T03:55:00;4.20;99.90
13682;DHT22;6913;49.892;7.936;2023-11-22T03:57:28;4.10;99.90
13682;DHT22;6913;49.892;7.936;2023-11-22T03:59:54;4.00;99.90
13682;DHT22;6913;49.892;7.936;2023-11-22T04:02:21;4.00;99.90
13682;DHT22;6913;49.892;7.936;2023-11-22T04:04:48;4.10;99.90
13682;DHT22;6913;49.892;7.936;2023-11-22T04:07:16;4.40;99.90
13682;DHT22;6913;49.892;7.936;2023-11-22T04:09:44;4.00;99.90
13682;DHT22;6913;49.892;7.936;2023-11-22T04:12:11;4.40;99.90
13682;DHT22;6913;49.892;7.936;2023-11-22T04:14:38;4.30;99.90
13682;DHT22;6913;49.892;7.936;2023-11-22T04:17:05;3.80;99.90
13682;DHT22;6913;49.892;7.936;2023-11-22T04:19:31;3.80;99.90
13682;DHT22;6913;49.892;7.936;2023-11-22T04:21:58;3.80;99.90
13682;DHT22;6913;49.892;7.936;2023-11-22T04:24:27;3.80;99.90
13682;DHT22;6913;49.892;7.936;2023-11-22T04:26:54;3.80;99.90
13682;DHT22;6913;49.892;7.936;2023-11-22T04:29:20;3.80;99.90
13682;DHT22;6913;49.892;7.936;2023-11-22T04:31:47;3.80;99.90
13682;DHT22;6913;49.892;7.936;2023-11-22T04:34:14;3.60;99.90
13682;DHT22;6913;49.892;7.936;2023-11-22T04:36:41;3.60;99.90
13682;DHT22;6913;49.892;7.936;2023-11-22T04:39:08;3.60;99.90
13682;DHT22;6913;49.892;7.936;2023-11-22T04:41:37;3.50;99.90
13682;DHT22;6913;49.892;7.936;2023-11-22T04:44:04;3.10;99.90
13682;DHT22;6913;49.892;7.936;2023-11-22T04:46:31;3.50;99.90
13682;DHT22;6913;49.892;7.936;2023-11-22T04:48:58;3.40;99.90
13682;DHT22;6913;49.892;7.936;2023-11-22T04:51:25;3.40;99.90
13682;DHT22;6913;49.892;7.936;2023-11-22T04:53:55;3.20;99.90
13682;DHT22;6913;49.892;7.936;2023-11-22T04:56:21;3.00;99.90
13682;DHT22;6913;49.892;7.936;2023-11-22T04:58:50;2.90;99.90
13682;DHT22;6913;49.892;7.936;2023-11-22T05:01:18;2.90;99.90
13682;DHT22;6913;49.892;7.936;2023-11-22T05:03:45;2.90;99.90
13682;DHT22;6913;49.892;7.936;2023-11-22T05:06:11;2.80;99.90
13682;DHT22;6913;49.892;7.936;2023-11-22T05:08:39;2.80;99.90
13682;DHT22;6913;49.892;7.936;2023-11-22T05:11:05;2.70;99.90
13682;DHT22;6913;49.892;7.936;2023-11-22T05:13:33;2.70;99.90
13682;DHT22;6913;49.892;7.936;2023-11-22T05:16:01;2.70;99.90
13682;DHT22;6913;49.892;7.936;2023-11-22T05:18:28;2.60;99.90
13682;DHT22;6913;49.892;7.936;2023-11-22T05:20:55;2.80;99.90
13682;DHT22;6913;49.892;7.936;2023-11-22T05:23:22;2.50;99.90
13682;DHT22;6913;49.892;7.936;2023-11-22T05:25:49;2.50;99.90
13682;DHT22;6913;49.892;7.936;2023-11-22T05:28:16;2.50;99.90
13682;DHT22;6913;49.892;7.936;2023-11-22T05:30:43;2.40;99.90
13682;DHT22;6913;49.892;7.936;2023-11-22T05:33:11;2.30;99.90
13682;DHT22;6913;49.892;7.936;2023-11-22T05:35:38;2.30;99.90
13682;DHT22;6913;49.892;7.936;2023-11-22T05:38:06;2.30;99.90
13682;DHT22;6913;49.892;7.936;2023-11-22T05:40:35;2.30;99.90
13682;DHT22;6913;49.892;7.936;2023-11-22T05:43:02;2.50;99.90
13682;DHT22;6913;49.892;7.936;2023-11-22T05:45:29;2.10;99.90
13682;DHT22;6913;49.892;7.936;2023-11-22T05:47:56;2.10;99.90
13682;DHT22;6913;49.892;7.936;2023-11-22T05:50:24;2.10;99.90
13682;DHT22;6913;49.892;7.936;2023-11-22T05:52:51;2.00;99.90
13682;DHT22;6913;49.892;7.936;2023-11-22T05:55:18;2.00;99.90
13682;DHT22;6913;49.892;7.936;2023-11-22T05:57:45;1.90;99.90
13682;DHT22;6913;49.892;7.936;2023-11-22T06:00:13;1.90;99.90
13682;DHT22;6913;49.892;7.936;2023-11-22T06:02:41;1.90;99.90
13682;DHT22;6913;49.892;7.936;2023-11-22T06:05:08;1.70;99.90
13682;DHT22;6913;49.892;7.936;2023-11-22T06:07:38;2.00;99.90
13682;DHT22;6913;49.892;7.936;2023-11-22T06:10:05;1.70;99.90
13682;DHT22;6913;49.892;7.936;2023-11-22T06:12:32;1.60;99.90
13682;DHT22;6913;49.892;7.936;2023-11-22T06:14:59;1.60;99.90
13682;DHT22;6913;49.892;7.936;2023-11-22T06:17:26;1.60;99.90
13682;DHT22;6913;49.892;7.936;2023-11-22T06:19:55;1.90;99.90
13682;DHT22;6913;49.892;7.936;2023-11-22T06:22:22;1.50;99.90
13682;DHT22;6913;49.892;7.936;2023-11-22T06:24:50;1.50;99.90
13682;DHT22;6913;49.892;7.936;2023-11-22T06:27:17;1.80;99.90
13682;DHT22;6913;49.892;7.936;2023-11-22T06:29:44;1.40;99.90
13682;DHT22;6913;49.892;7.936;2023-11-22T06:32:12;1.40;99.90
13682;DHT22;6913;49.892;7.936;2023-11-22T06:34:39;1.40;99.90
13682;DHT22;6913;49.892;7.936;2023-11-22T06:37:06;1.40;99.90
13682;DHT22;6913;49.892;7.936;2023-11-22T06:39:34;1.40;99.90
13682;DHT22;6913;49.892;7.936;2023-11-22T06:42:04;1.70;99.90
13682;DHT22;6913;49.892;7.936;2023-11-22T06:44:31;1.30;99.90
13682;DHT22;6913;49.892;7.936;2023-11-22T06:46:59;1.70;99.90
13682;DHT22;6913;49.892;7.936;2023-11-22T06:49:27;1.20;99.90
13682;DHT22;6913;49.892;7.936;2023-11-22T06:51:54;1.40;99.90
13682;DHT22;6913;49.892;7.936;2023-11-22T06:54:21;1.20;99.90
13682;DHT22;6913;49.892;7.936;2023-11-22T06:56:48;1.10;99.90
13682;DHT22;6913;49.892;7.936;2023-11-22T06:59:17;1.10;99.90
13682;DHT22;6913;49.892;7.936;2023-11-22T07:01:44;1.00;99.90
13682;DHT22;6913;49.892;7.936;2023-11-22T07:04:12;1.00;99.90
13682;DHT22;6913;49.892;7.936;2023-11-22T07:06:38;1.00;99.90
13682;DHT22;6913;49.892;7.936;2023-11-22T07:09:06;1.00;99.90
13682;DHT22;6913;49.892;7.936;2023-11-22T07:11:35;1.00;99.90
13682;DHT22;6913;49.892;7.936;2023-11-22T07:14:03;1.10;99.90
13682;DHT22;6913;49.892;7.936;2023-11-22T07:16:31;1.10;99.90
13682;DHT22;6913;49.892;7.936;2023-11-22T07:18:59;1.10;99.90
13682;DHT22;6913;49.892;7.936;2023-11-22T07:21:28;1.30;99.90
13682;DHT22;6913;49.892;7.936;2023-11-22T07:23:55;1.40;99.90
13682;DHT22;6913;49.892;7.936;2023-11-22T07:26:22;1.50;99.90
13682;DHT22;6913;49.892;7.936;2023-11-22T07:28:49;1.80;99.90
13682;DHT22;6913;49.892;7.936;2023-11-22T07:31:17;2.50;99.90
13682;DHT22;6913;49.892;7.936;2023-11-22T07:33:46;2.40;99.90
13682;DHT22;6913;49.892;7.936;2023-11-22T07:36:13;2.70;99.90
13682;DHT22;6913;49.892;7.936;2023-11-22T07:38:41;2.90;99.90
13682;DHT22;6913;49.892;7.936;2023-11-22T07:41:08;3.20;99.90
13682;DHT22;6913;49.892;7.936;2023-11-22T07:43:36;3.40;99.90
13682;DHT22;6913;49.892;7.936;2023-11-22T07:46:05;3.60;99.90
13682;DHT22;6913;49.892;7.936;2023-11-22T07:48:34;3.90;99.90
13682;DHT22;6913;49.892;7.936;2023-11-22T07:51:04;3.80;93.90
13682;DHT22;6913;49.892;7.936;2023-11-22T07:53:32;3.70;99.90
13682;DHT22;6913;49.892;7.936;2023-11-22T07:55:59;3.70;99.90
13682;DHT22;6913;49.892;7.936;2023-11-22T07:58:29;3.80;99.90
13682;DHT22;6913;49.892;7.936;2023-11-22T08:00:57;3.90;99.90
13682;DHT22;6913;49.892;7.936;2023-11-22T08:03:25;3.90;96.60
13682;DHT22;6913;49.892;7.936;2023-11-22T08:05:52;3.70;93.40
13682;DHT22;6913;49.892;7.936;2023-11-22T08:08:22;4.00;99.90
13682;DHT22;6913;49.892;7.936;2023-11-22T08:10:49;3.90;94.50
13682;DHT22;6913;49.892;7.936;2023-11-22T08:13:19;3.80;99.90
13682;DHT22;6913;49.892;7.936;2023-11-22T08:15:48;4.00;90.40
13682;DHT22;6913;49.892;7.936;2023-11-22T08:18:15;3.90;86.50
13682;DHT22;6913;49.892;7.936;2023-11-22T08:20:43;4.40;42.30
13682;DHT22;6913;49.892;7.936;2023-11-22T08:23:10;4.80;98.10
13682;DHT22;6913;49.892;7.936;2023-11-22T08:25:39;4.60;86.90
13682;DHT22;6913;49.892;7.936;2023-11-22T08:28:06;4.60;58.30
13682;DHT22;6913;49.892;7.936;2023-11-22T08:30:33;4.70;67.50
13682;DHT22;6913;49.892;7.936;2023-11-22T08:33:01;4.50;68.50
13682;DHT22;6913;49.892;7.936;2023-11-22T08:35:28;4.90;46.70
13682;DHT22;6913;49.892;7.936;2023-11-22T08:37:55;5.30;37.00
13682;DHT22;6913;49.892;7.936;2023-11-22T08:40:24;5.60;33.00
13682;DHT22;6913;49.892;7.936;2023-11-22T08:42:52;5.70;61.90
13682;DHT22;6913;49.892;7.936;2023-11-22T08:45:20;5.40;14.70
13682;DHT22;6913;49.892;7.936;2023-11-22T08:47:46;6.00;1.00
13682;DHT22;6913;49.892;7.936;2023-11-22T08:50:15;5.80;1.00
13682;DHT22;6913;49.892;7.936;2023-11-22T08:52:42;5.40;1.00
13682;DHT22;6913;49.892;7.936;2023-11-22T08:55:10;4.80;13.00
13682;DHT22;6913;49.892;7.936;2023-11-22T08:57:38;4.80;67.50
13682;DHT22;6913;49.892;7.936;2023-11-22T09:00:08;5.30;57.90
13682;DHT22;6913;49.892;7.936;2023-11-22T09:02:36;5.80;27.60
13682;DHT22;6913;49.892;7.936;2023-11-22T09:05:05;5.40;1.00
13682;DHT22;6913;49.892;7.936;2023-11-22T09:07:33;4.70;1.00
13682;DHT22;6913;49.892;7.936;2023-11-22T09:10:01;4.50;52.30
13682;DHT22;6913;49.892;7.936;2023-11-22T09:12:35;4.80;14.70
13682;DHT22;6913;49.892;7.936;2023-11-22T09:15:03;4.20;8.40
13682;DHT22;6913;49.892;7.936;2023-11-22T09:17:35;4.20;40.00
13682;DHT22;6913;49.892;7.936;2023-11-22T09:20:06;4.50;17.50
13682;DHT22;6913;49.892;7.936;2023-11-22T09:22:36;4.30;25.60
13682;DHT22;6913;49.892;7.936;2023-11-22T09:25:05;4.20;7.90
13682;DHT22;6913;49.892;7.936;2023-11-22T09:27:36;4.30;1.00
13682;DHT22;6913;49.892;7.936;2023-11-22T09:30:05;4.10;20.70
13682;DHT22;6913;49.892;7.936;2023-11-22T09:32:32;4.70;26.30
13682;DHT22;6913;49.892;7.936;2023-11-22T09:35:00;4.20;1.00
13682;DHT22;6913;49.892;7.936;2023-11-22T09:37:27;4.40;7.10
13682;DHT22;6913;49.892;7.936;2023-11-22T09:39:55;4.60;1.00
13682;DHT22;6913;49.892;7.936;2023-11-22T09:42:23;4.50;1.00
13682;DHT22;6913;49.892;7.936;2023-11-22T09:44:51;4.30;1.00
13682;DHT22;6913;49.892;7.936;2023-11-22T09:47:18;3.60;13.40
13682;DHT22;6913;49.892;7.936;2023-11-22T09:49:48;3.20;17.40
13682;DHT22;6913;49.892;7.936;2023-11-22T09:52:21;3.10;5.10
13682;DHT22;6913;49.892;7.936;2023-11-22T09:54:49;3.00;10.70
13682;DHT22;6913;49.892;7.936;2023-11-22T09:57:19;3.20;1.80
13682;DHT22;6913;49.892;7.936;2023-11-22T09:59:49;3.40;1.00
13682;DHT22;6913;49.892;7.936;2023-11-22T10:02:18;3.60;1.00
13682;DHT22;6913;49.892;7.936;2023-11-22T10:04:45;4.10;1.00
13682;DHT22;6913;49.892;7.936;2023-11-22T10:07:14;4.20;1.00
13682;DHT22;6913;49.892;7.936;2023-11-22T10:09:42;3.90;1.00
13682;DHT22;6913;49.892;7.936;2023-11-22T10:12:12;4.10;1.00
13682;DHT22;6913;49.892;7.936;2023-11-22T10:14:40;4.30;1.00
13682;DHT22;6913;49.892;7.936;2023-11-22T10:17:07;4.30;1.00
13682;DHT22;6913;49.892;7.936;2023-11-22T10:19:35;4.40;1.00
13682;DHT22;6913;49.892;7.936;2023-11-22T10:22:03;4.00;1.00
13682;DHT22;6913;49.892;7.936;2023-11-22T10:24:31;4.10;1.00
13682;DHT22;6913;49.892;7.936;2023-11-22T10:27:00;4.40;1.00
13682;DHT22;6913;49.892;7.936;2023-11-22T10:29:27;4.70;1.00
13682;DHT22;6913;49.892;7.936;2023-11-22T10:31:55;4.50;1.00
13682;DHT22;6913;49.892;7.936;2023-11-22T10:34:23;4.60;1.00
13682;DHT22;6913;49.892;7.936;2023-11-22T10:36:50;4.60;1.00
13682;DHT22;6913;49.892;7.936;2023-11-22T10:39:19;4.80;1.00
13682;DHT22;6913;49.892;7.936;2023-11-22T10:41:46;4.80;1.00
13682;DHT22;6913;49.892;7.936;2023-11-22T10:44:16;4.90;1.00
13682;DHT22;6913;49.892;7.936;2023-11-22T10:46:43;4.70;1.00
13682;DHT22;6913;49.892;7.936;2023-11-22T10:49:10;5.00;1.00
13682;DHT22;6913;49.892;7.936;2023-11-22T10:51:39;5.60;1.00
13682;DHT22;6913;49.892;7.936;2023-11-22T10:54:07;5.20;99.90
13682;DHT22;6913;49.892;7.936;2023-11-22T10:56:38;5.60;1.00
13682;DHT22;6913;49.892;7.936;2023-11-22T10:59:10;5.00;99.90
13682;DHT22;6913;49.892;7.936;2023-11-22T11:01:44;5.50;1.00
13682;DHT22;6913;49.892;7.936;2023-11-22T11:04:19;5.20;1.00
13682;DHT22;6913;49.892;7.936;2023-11-22T11:06:51;6.00;1.00
13682;DHT22;6913;49.892;7.936;2023-11-22T11:09:21;6.00;1.00
13682;DHT22;6913;49.892;7.936;2023-11-22T11:11:52;5.80;99.90
13682;DHT22;6913;49.892;7.936;2023-11-22T11:14:19;6.00;99.90
13682;DHT22;6913;49.892;7.936;2023-11-22T11:16:47;6.10;99.90
13682;DHT22;6913;49.892;7.936;2023-11-22T11:19:16;6.20;1.00
13682;DHT22;6913;49.892;7.936;2023-11-22T11:21:44;6.20;1.00
13682;DHT22;6913;49.892;7.936;2023-11-22T11:24:11;6.20;1.00
13682;DHT22;6913;49.892;7.936;2023-11-22T11:26:38;5.80;71.50
13682;DHT22;6913;49.892;7.936;2023-11-22T11:29:05;5.90;1.00
13682;DHT22;6913;49.892;7.936;2023-11-22T11:31:38;5.90;99.90
13682;DHT22;6913;49.892;7.936;2023-11-22T11:34:08;5.60;1.00
13682;DHT22;6913;49.892;7.936;2023-11-22T11:36:37;5.80;1.00
13682;DHT22;6913;49.892;7.936;2023-11-22T11:39:06;5.80;1.00
13682;DHT22;6913;49.892;7.936;2023-11-22T11:41:35;4.90;1.00
13682;DHT22;6913;49.892;7.936;2023-11-22T11:44:03;5.60;1.00
13682;DHT22;6913;49.892;7.936;2023-11-22T11:46:31;5.70;1.00
13682;DHT22;6913;49.892;7.936;2023-11-22T11:48:58;5.30;47.30
13682;DHT22;6913;49.892;7.936;2023-11-22T11:51:28;5.50;1.00
13682;DHT22;6913;49.892;7.936;2023-11-22T11:53:56;5.40;91.20
13682;DHT22;6913;49.892;7.936;2023-11-22T11:56:23;5.10;99.90
13682;DHT22;6913;49.892;7.936;2023-11-22T11:58:53;4.90;1.00
13682;DHT22;6913;49.892;7.936;2023-11-22T12:01:24;5.00;1.00
13682;DHT22;6913;49.892;7.936;2023-11-22T12:03:52;5.00;1.00
13682;DHT22;6913;49.892;7.936;2023-11-22T12:06:19;5.60;99.90
13682;DHT22;6913;49.892;7.936;2023-11-22T12:08:47;5.10;1.00
13682;DHT22;6913;49.892;7.936;2023-11-22T12:11:14;5.90;1.00
13682;DHT22;6913;49.892;7.936;2023-11-22T12:13:43;5.20;1.00
13682;DHT22;6913;49.892;7.936;2023-11-22T12:16:14;5.00;1.00
13682;DHT22;6913;49.892;7.936;2023-11-22T12:18:42;5.20;1.00
13682;DHT22;6913;49.892;7.936;2023-11-22T12:21:10;5.00;24.20
13682;DHT22;6913;49.892;7.936;2023-11-22T12:23:39;4.90;1.00
13682;DHT22;6913;49.892;7.936;2023-11-22T12:26:11;5.40;1.00
13682;DHT22;6913;49.892;7.936;2023-11-22T12:28:40;5.30;99.90
13682;DHT22;6913;49.892;7.936;2023-11-22T12:31:07;5.30;99.90
13682;DHT22;6913;49.892;7.936;2023-11-22T12:33:35;5.10;99.90
13682;DHT22;6913;49.892;7.936;2023-11-22T12:36:03;5.70;1.00
13682;DHT22;6913;49.892;7.936;2023-11-22T12:38:30;5.30;1.00
13682;DHT22;6913;49.892;7.936;2023-11-22T12:40:57;5.30;1.00
13682;DHT22;6913;49.892;7.936;2023-11-22T12:43:26;5.70;1.00
13682;DHT22;6913;49.892;7.936;2023-11-22T12:45:59;6.00;1.00
13682;DHT22;6913;49.892;7.936;2023-11-22T12:48:26;5.50;1.00
13682;DHT22;6913;49.892;7.936;2023-11-22T12:50:56;5.40;1.00
13682;DHT22;6913;49.892;7.936;2023-11-22T12:53:23;4.90;1.00
13682;DHT22;6913;49.892;7.936;2023-11-22T12:55:54;5.20;1.00
13682;DHT22;6913;49.892;7.936;2023-11-22T12:58:22;4.90;99.90
13682;DHT22;6913;49.892;7.936;2023-11-22T13:00:51;5.30;1.00
13682;DHT22;6913;49.892;7.936;2023-11-22T13:03:23;5.40;99.90
13682;DHT22;6913;49.892;7.936;2023-11-22T13:05:51;5.00;1.00
13682;DHT22;6913;49.892;7.936;2023-11-22T13:08:19;5.40;1.00
13682;DHT22;6913;49.892;7.936;2023-11-22T13:10:48;5.60;1.00
13682;DHT22;6913;49.892;7.936;2023-11-22T13:13:19;5.40;99.90
13682;DHT22;6913;49.892;7.936;2023-11-22T13:15:46;5.40;1.00
13682;DHT22;6913;49.892;7.936;2023-11-22T13:18:14;5.70;1.00
13682;DHT22;6913;49.892;7.936;2023-11-22T13:20:42;5.80;99.90
13682;DHT22;6913;49.892;7.936;2023-11-22T13:23:09;5.70;34.70
13682;DHT22;6913;49.892;7.936;2023-11-22T13:25:37;4.90;99.90
13682;DHT22;6913;49.892;7.936;2023-11-22T13:28:04;4.60;1.00
13682;DHT22;6913;49.892;7.936;2023-11-22T13:30:32;5.30;99.90
13682;DHT22;6913;49.892;7.936;2023-11-22T13:32:59;4.80;1.00
13682;DHT22;6913;49.892;7.936;2023-11-22T13:35:28;4.50;1.00
13682;DHT22;6913;49.892;7.936;2023-11-22T13:37:56;4.40;99.90
13682;DHT22;6913;49.892;7.936;2023-11-22T13:40:23;4.30;1.00
13682;DHT22;6913;49.892;7.936;2023-11-22T13:42:56;4.50;1.00
13682;DHT22;6913;49.892;7.936;2023-11-22T13:45:23;4.80;99.90
13682;DHT22;6913;49.892;7.936;2023-11-22T13:47:51;4.70;1.00
13682;DHT22;6913;49.892;7.936;2023-11-22T13:50:22;4.50;1.00
13682;DHT22;6913;49.892;7.936;2023-11-22T13:52:54;4.30;1.00
13682;DHT22;6913;49.892;7.936;2023-11-22T13:55:21;4.30;99.90
13682;DHT22;6913;49.892;7.936;2023-11-22T13:57:49;4.50;1.00
13682;DHT22;6913;49.892;7.936;2023-11-22T14:00:18;4.50;1.00
13682;DHT22;6913;49.892;7.936;2023-11-22T14:02:45;4.30;99.90
13682;DHT22;6913;49.892;7.936;2023-11-22T14:05:12;4.60;1.00
13682;DHT22;6913;49.892;7.936;2023-11-22T14:07:41;4.90;99.90
13682;DHT22;6913;49.892;7.936;2023-11-22T14:10:10;5.30;1.00
13682;DHT22;6913;49.892;7.936;2023-11-22T14:12:41;4.70;99.90
13682;DHT22;6913;49.892;7.936;2023-11-22T14:15:09;4.90;1.00
13682;DHT22;6913;49.892;7.936;2023-11-22T14:17:37;4.80;99.90
13682;DHT22;6913;49.892;7.936;2023-11-22T14:20:06;4.50;1.00
13682;DHT22;6913;49.892;7.936;2023-11-22T14:22:34;4.80;1.00
13682;DHT22;6913;49.892;7.936;2023-11-22T14:25:02;4.60;1.00
13682;DHT22;6913;49.892;7.936;2023-11-22T14:27:31;4.70;1.00
13682;DHT22;6913;49.892;7.936;2023-11-22T14:29:59;5.00;1.00
13682;DHT22;6913;49.892;7.936;2023-11-22T14:32:31;4.50;1.00
13682;DHT22;6913;49.892;7.936;2023-11-22T14:34:58;4.50;1.00
13682;DHT22;6913;49.892;7.936;2023-11-22T14:37:24;4.50;1.00
13682;DHT22;6913;49.892;7.936;2023-11-22T14:39:51;4.50;1.00
13682;DHT22;6913;49.892;7.936;2023-11-22T14:42:19;4.60;1.00
13682;DHT22;6913;49.892;7.936;2023-11-22T14:44:48;4.50;1.00
13682;DHT22;6913;49.892;7.936;2023-11-22T14:47:15;4.50;1.00
13682;DHT22;6913;49.892;7.936;2023-11-22T14:49:45;4.30;1.00
13682;DHT22;6913;49.892;7.936;2023-11-22T14:52:12;4.10;1.00
13682;DHT22;6913;49.892;7.936;2023-11-22T14:54:38;4.20;1.00
13682;DHT22;6913;49.892;7.936;2023-11-22T14:57:06;4.10;1.00
13682;DHT22;6913;49.892;7.936;2023-11-22T14:59:35;4.30;1.00
13682;DHT22;6913;49.892;7.936;2023-11-22T15:02:04;4.40;1.00
13682;DHT22;6913;49.892;7.936;2023-11-22T15:04:33;4.20;1.00
13682;DHT22;6913;49.892;7.936;2023-11-22T15:07:01;4.20;1.00
13682;DHT22;6913;49.892;7.936;2023-11-22T15:09:28;4.50;1.00
13682;DHT22;6913;49.892;7.936;2023-11-22T15:11:57;4.00;1.00
13682;DHT22;6913;49.892;7.936;2023-11-22T15:14:24;3.90;1.00
13682;DHT22;6913;49.892;7.936;2023-11-22T15:16:52;3.80;1.00
13682;DHT22;6913;49.892;7.936;2023-11-22T15:19:21;3.90;1.00
13682;DHT22;6913;49.892;7.936;2023-11-22T15:21:50;4.10;1.00
13682;DHT22;6913;49.892;7.936;2023-11-22T15:24:17;3.90;1.00
13682;DHT22;6913;49.892;7.936;2023-11-22T15:26:44;3.90;1.00
13682;DHT22;6913;49.892;7.936;2023-11-22T15:29:11;3.80;1.00
13682;DHT22;6913;49.892;7.936;2023-11-22T15:31:41;3.90;1.00
13682;DHT22;6913;49.892;7.936;2023-11-22T15:34:09;3.90;1.00
13682;DHT22;6913;49.892;7.936;2023-11-22T15:36:39;3.80;1.00
13682;DHT22;6913;49.892;7.936;2023-11-22T15:39:06;3.80;1.00
13682;DHT22;6913;49.892;7.936;2023-11-22T15:41:37;4.20;1.00
13682;DHT22;6913;49.892;7.936;2023-11-22T15:44:04;3.90;1.00
13682;DHT22;6913;49.892;7.936;2023-11-22T15:46:32;3.90;1.00
13682;DHT22;6913;49.892;7.936;2023-11-22T15:48:59;4.00;1.00
13682;DHT22;6913;49.892;7.936;2023-11-22T15:51:26;4.00;1.00
13682;DHT22;6913;49.892;7.936;2023-11-22T15:53:55;4.00;1.00
13682;DHT22;6913;49.892;7.936;2023-11-22T15:56:21;4.00;1.00
13682;DHT22;6913;49.892;7.936;2023-11-22T15:58:52;4.00;1.00
13682;DHT22;6913;49.892;7.936;2023-11-22T16:01:19;4.00;1.00
13682;DHT22;6913;49.892;7.936;2023-11-22T16:03:46;4.00;1.00
13682;DHT22;6913;49.892;7.936;2023-11-22T16:06:14;3.90;1.00
13682;DHT22;6913;49.892;7.936;2023-11-22T16:08:44;4.00;1.00
13682;DHT22;6913;49.892;7.936;2023-11-22T16:11:12;4.20;1.00